sensor_id;sensor_type;location;lat;lon;timestamp;P1;durP1;ratioP1;P2;durP2;ratioP2
6376;SDS011;3221;48.858;10.128;2023-05-27T00:01:43;10.20;;;4.70;;
6376;SDS011;3221;48.858;10.128;2023-05-27T00:04:10;8.53;;;3.70;;
6376;SDS011;3221;48.858;10.128;2023-05-27T00:06:37;11.47;;;4.50;;
6376;SDS011;3221;48.858;10.128;2023-05-27T00:09:08;11.67;;;4.93;;
6376;SDS011;3221;48.858;10.128;2023-05-27T00:11:36;10.97;;;4.97;;
6376;SDS011;3221;48.858;10.128;2023-05-27T00:14:14;8.50;;;4.53;;
6376;SDS011;3221;48.858;10.128;2023-05-27T00:16:52;11.30;;;4.63;;
6376;SDS011;3221;48.858;10.128;2023-05-27T00:19:20;13.87;;;5.00;;
6376;SDS011;3221;48.858;10.128;2023-05-27T00:21:51;14.77;;;4.83;;
6376;SDS011;3221;48.858;10.128;2023-05-27T00:24:22;8.27;;;4.30;;
6376;SDS011;3221;48.858;10.128;2023-05-27T00:26:56;9.93;;;3.83;;
6376;SDS011;3221;48.858;10.128;2023-05-27T00:29:33;10.17;;;4.17;;
6376;SDS011;3221;48.858;10.128;2023-05-27T00:32:02;12.47;;;4.37;;
6376;SDS011;3221;48.858;10.128;2023-05-27T00:34:44;11.60;;;4.63;;
6376;SDS011;3221;48.858;10.128;2023-05-27T00:37:18;8.77;;;4.27;;
6376;SDS011;3221;48.858;10.128;2023-05-27T00:40:00;12.97;;;4.70;;
6376;SDS011;3221;48.858;10.128;2023-05-27T00:42:35;9.27;;;4.37;;
6376;SDS011;3221;48.858;10.128;2023-05-27T00:45:06;11.87;;;5.37;;
6376;SDS011;3221;48.858;10.128;2023-05-27T00:47:40;12.97;;;5.00;;
6376;SDS011;3221;48.858;10.128;2023-05-27T00:50:08;11.90;;;4.43;;
6376;SDS011;3221;48.858;10.128;2023-05-27T00:53:02;10.43;;;4.23;;
6376;SDS011;3221;48.858;10.128;2023-05-27T00:55:37;10.37;;;4.40;;
6376;SDS011;3221;48.858;10.128;2023-05-27T00:58:12;11.13;;;4.43;;
6376;SDS011;3221;48.858;10.128;2023-05-27T01:00:39;12.73;;;5.03;;
6376;SDS011;3221;48.858;10.128;2023-05-27T01:03:35;8.10;;;3.97;;
6376;SDS011;3221;48.858;10.128;2023-05-27T01:06:24;11.37;;;4.63;;
6376;SDS011;3221;48.858;10.128;2023-05-27T01:12:26;15.23;;;4.67;;
6376;SDS011;3221;48.858;10.128;2023-05-27T01:15:32;12.60;;;4.37;;
6376;SDS011;3221;48.858;10.128;2023-05-27T01:18:08;13.30;;;4.60;;
6376;SDS011;3221;48.858;10.128;2023-05-27T01:20:47;13.13;;;4.83;;
6376;SDS011;3221;48.858;10.128;2023-05-27T01:23:22;10.57;;;4.60;;
6376;SDS011;3221;48.858;10.128;2023-05-27T01:25:54;14.03;;;4.30;;
6376;SDS011;3221;48.858;10.128;2023-05-27T01:28:28;10.33;;;4.50;;
6376;SDS011;3221;48.858;10.128;2023-05-27T01:34:26;9.73;;;4.20;;
6376;SDS011;3221;48.858;10.128;2023-05-27T01:37:24;10.03;;;4.10;;
6376;SDS011;3221;48.858;10.128;2023-05-27T01:39:53;13.90;;;4.50;;
6376;SDS011;3221;48.858;10.128;2023-05-27T01:42:30;8.60;;;4.10;;
6376;SDS011;3221;48.858;10.128;2023-05-27T01:45:02;9.30;;;4.30;;
6376;SDS011;3221;48.858;10.128;2023-05-27T01:47:55;11.50;;;4.50;;
6376;SDS011;3221;48.858;10.128;2023-05-27T01:50:31;9.40;;;3.90;;
6376;SDS011;3221;48.858;10.128;2023-05-27T01:53:14;13.20;;;4.67;;
6376;SDS011;3221;48.858;10.128;2023-05-27T01:56:03;14.27;;;5.00;;
6376;SDS011;3221;48.858;10.128;2023-05-27T01:58:41;12.10;;;4.43;;
6376;SDS011;3221;48.858;10.128;2023-05-27T02:01:19;11.63;;;4.50;;
6376;SDS011;3221;48.858;10.128;2023-05-27T02:04:22;10.07;;;3.90;;
6376;SDS011;3221;48.858;10.128;2023-05-27T02:07:19;9.73;;;4.37;;
6376;SDS011;3221;48.858;10.128;2023-05-27T02:09:51;11.63;;;4.67;;
6376;SDS011;3221;48.858;10.128;2023-05-27T02:12:34;9.23;;;4.07;;
6376;SDS011;3221;48.858;10.128;2023-05-27T02:15:11;11.03;;;4.53;;
6376;SDS011;3221;48.858;10.128;2023-05-27T02:17:39;11.70;;;4.53;;
6376;SDS011;3221;48.858;10.128;2023-05-27T02:20:14;11.60;;;4.50;;
6376;SDS011;3221;48.858;10.128;2023-05-27T02:22:42;11.27;;;3.97;;
6376;SDS011;3221;48.858;10.128;2023-05-27T02:25:12;9.57;;;4.10;;
6376;SDS011;3221;48.858;10.128;2023-05-27T02:27:43;8.90;;;4.20;;
6376;SDS011;3221;48.858;10.128;2023-05-27T02:30:15;12.27;;;4.30;;
6376;SDS011;3221;48.858;10.128;2023-05-27T02:32:47;11.10;;;4.33;;
6376;SDS011;3221;48.858;10.128;2023-05-27T02:35:14;8.73;;;4.07;;
6376;SDS011;3221;48.858;10.128;2023-05-27T02:37:45;9.33;;;4.27;;
6376;SDS011;3221;48.858;10.128;2023-05-27T02:40:33;12.63;;;4.23;;
6376;SDS011;3221;48.858;10.128;2023-05-27T02:43:01;9.33;;;4.27;;
6376;SDS011;3221;48.858;10.128;2023-05-27T02:45:29;11.03;;;4.83;;
6376;SDS011;3221;48.858;10.128;2023-05-27T02:47:58;9.63;;;4.30;;
6376;SDS011;3221;48.858;10.128;2023-05-27T02:50:36;10.40;;;4.07;;
6376;SDS011;3221;48.858;10.128;2023-05-27T02:53:09;10.37;;;4.50;;
6376;SDS011;3221;48.858;10.128;2023-05-27T02:55:39;10.47;;;3.87;;
6376;SDS011;3221;48.858;10.128;2023-05-27T03:01:14;11.03;;;4.47;;
6376;SDS011;3221;48.858;10.128;2023-05-27T03:03:43;11.23;;;4.50;;
6376;SDS011;3221;48.858;10.128;2023-05-27T03:06:21;12.30;;;4.90;;
6376;SDS011;3221;48.858;10.128;2023-05-27T03:08:56;9.87;;;4.23;;
6376;SDS011;3221;48.858;10.128;2023-05-27T03:11:31;10.20;;;4.17;;
6376;SDS011;3221;48.858;10.128;2023-05-27T03:14:10;11.00;;;4.20;;
6376;SDS011;3221;48.858;10.128;2023-05-27T03:16:38;12.53;;;4.70;;
6376;SDS011;3221;48.858;10.128;2023-05-27T03:19:19;11.27;;;4.43;;
6376;SDS011;3221;48.858;10.128;2023-05-27T03:21:52;7.93;;;4.03;;
6376;SDS011;3221;48.858;10.128;2023-05-27T03:24:37;11.63;;;4.53;;
6376;SDS011;3221;48.858;10.128;2023-05-27T03:27:37;10.57;;;3.90;;
6376;SDS011;3221;48.858;10.128;2023-05-27T03:30:16;10.83;;;4.00;;
6376;SDS011;3221;48.858;10.128;2023-05-27T03:33:05;12.30;;;4.63;;
6376;SDS011;3221;48.858;10.128;2023-05-27T03:35:38;10.87;;;4.40;;
6376;SDS011;3221;48.858;10.128;2023-05-27T03:41:07;11.10;;;4.07;;
6376;SDS011;3221;48.858;10.128;2023-05-27T03:43:55;11.67;;;4.73;;
6376;SDS011;3221;48.858;10.128;2023-05-27T03:46:40;9.90;;;4.33;;
6376;SDS011;3221;48.858;10.128;2023-05-27T03:49:15;11.70;;;4.40;;
6376;SDS011;3221;48.858;10.128;2023-05-27T03:52:33;8.67;;;4.60;;
6376;SDS011;3221;48.858;10.128;2023-05-27T03:58:11;14.63;;;4.93;;
6376;SDS011;3221;48.858;10.128;2023-05-27T04:00:55;9.80;;;4.37;;
6376;SDS011;3221;48.858;10.128;2023-05-27T04:03:24;9.13;;;4.43;;
6376;SDS011;3221;48.858;10.128;2023-05-27T04:05:55;7.87;;;3.83;;
6376;SDS011;3221;48.858;10.128;2023-05-27T04:08:24;8.53;;;4.30;;
6376;SDS011;3221;48.858;10.128;2023-05-27T04:10:58;9.73;;;4.70;;
6376;SDS011;3221;48.858;10.128;2023-05-27T04:13:44;10.63;;;4.60;;
6376;SDS011;3221;48.858;10.128;2023-05-27T04:16:12;12.63;;;4.17;;
6376;SDS011;3221;48.858;10.128;2023-05-27T04:18:43;11.60;;;4.30;;
6376;SDS011;3221;48.858;10.128;2023-05-27T04:21:22;11.37;;;4.10;;
6376;SDS011;3221;48.858;10.128;2023-05-27T04:23:49;10.73;;;4.37;;
6376;SDS011;3221;48.858;10.128;2023-05-27T04:26:20;10.63;;;4.00;;
6376;SDS011;3221;48.858;10.128;2023-05-27T04:29:01;11.53;;;4.47;;
6376;SDS011;3221;48.858;10.128;2023-05-27T04:31:45;12.87;;;4.20;;
6376;SDS011;3221;48.858;10.128;2023-05-27T04:34:43;11.80;;;4.53;;
6376;SDS011;3221;48.858;10.128;2023-05-27T04:37:17;11.13;;;4.23;;
6376;SDS011;3221;48.858;10.128;2023-05-27T04:41:28;10.23;;;4.37;;
6376;SDS011;3221;48.858;10.128;2023-05-27T04:47:19;7.43;;;3.87;;
6376;SDS011;3221;48.858;10.128;2023-05-27T04:49:50;9.33;;;4.70;;
6376;SDS011;3221;48.858;10.128;2023-05-27T04:52:23;9.13;;;4.07;;
6376;SDS011;3221;48.858;10.128;2023-05-27T04:55:08;12.40;;;4.60;;
6376;SDS011;3221;48.858;10.128;2023-05-27T04:57:39;10.07;;;4.43;;
6376;SDS011;3221;48.858;10.128;2023-05-27T05:00:17;9.40;;;4.63;;
6376;SDS011;3221;48.858;10.128;2023-05-27T05:03:22;10.60;;;4.03;;
6376;SDS011;3221;48.858;10.128;2023-05-27T05:07:01;11.50;;;4.37;;
6376;SDS011;3221;48.858;10.128;2023-05-27T05:09:45;12.83;;;4.00;;
6376;SDS011;3221;48.858;10.128;2023-05-27T05:12:40;9.90;;;4.60;;
6376;SDS011;3221;48.858;10.128;2023-05-27T05:15:15;11.23;;;4.13;;
6376;SDS011;3221;48.858;10.128;2023-05-27T05:18:14;11.03;;;4.60;;
6376;SDS011;3221;48.858;10.128;2023-05-27T05:20:51;11.20;;;4.33;;
6376;SDS011;3221;48.858;10.128;2023-05-27T05:23:28;13.33;;;4.87;;
6376;SDS011;3221;48.858;10.128;2023-05-27T05:26:07;9.50;;;4.37;;
6376;SDS011;3221;48.858;10.128;2023-05-27T05:28:41;8.63;;;3.90;;
6376;SDS011;3221;48.858;10.128;2023-05-27T05:31:12;9.80;;;3.90;;
6376;SDS011;3221;48.858;10.128;2023-05-27T05:33:47;9.93;;;4.50;;
6376;SDS011;3221;48.858;10.128;2023-05-27T05:36:20;7.90;;;3.70;;
6376;SDS011;3221;48.858;10.128;2023-05-27T05:39:14;11.63;;;4.70;;
6376;SDS011;3221;48.858;10.128;2023-05-27T05:42:08;12.37;;;4.83;;
6376;SDS011;3221;48.858;10.128;2023-05-27T05:44:38;10.67;;;4.10;;
6376;SDS011;3221;48.858;10.128;2023-05-27T05:57:03;11.23;;;4.40;;
6376;SDS011;3221;48.858;10.128;2023-05-27T06:00:04;9.23;;;4.40;;
6376;SDS011;3221;48.858;10.128;2023-05-27T06:02:43;10.23;;;4.47;;
6376;SDS011;3221;48.858;10.128;2023-05-27T06:05:17;9.53;;;4.33;;
6376;SDS011;3221;48.858;10.128;2023-05-27T06:07:44;7.07;;;4.10;;
6376;SDS011;3221;48.858;10.128;2023-05-27T06:10:11;13.20;;;4.80;;
6376;SDS011;3221;48.858;10.128;2023-05-27T06:12:42;12.63;;;4.73;;
6376;SDS011;3221;48.858;10.128;2023-05-27T06:15:08;8.07;;;4.23;;
6376;SDS011;3221;48.858;10.128;2023-05-27T06:17:39;10.93;;;4.40;;
6376;SDS011;3221;48.858;10.128;2023-05-27T06:20:07;13.73;;;4.63;;
6376;SDS011;3221;48.858;10.128;2023-05-27T06:22:34;12.37;;;5.20;;
6376;SDS011;3221;48.858;10.128;2023-05-27T06:25:19;9.37;;;4.70;;
6376;SDS011;3221;48.858;10.128;2023-05-27T06:27:59;11.40;;;4.80;;
6376;SDS011;3221;48.858;10.128;2023-05-27T06:30:26;10.40;;;4.67;;
6376;SDS011;3221;48.858;10.128;2023-05-27T06:32:54;9.77;;;4.83;;
6376;SDS011;3221;48.858;10.128;2023-05-27T06:35:23;12.20;;;4.60;;
6376;SDS011;3221;48.858;10.128;2023-05-27T06:37:51;11.90;;;4.97;;
6376;SDS011;3221;48.858;10.128;2023-05-27T06:40:18;12.30;;;4.77;;
6376;SDS011;3221;48.858;10.128;2023-05-27T06:42:45;9.97;;;4.57;;
6376;SDS011;3221;48.858;10.128;2023-05-27T06:45:18;7.90;;;4.17;;
6376;SDS011;3221;48.858;10.128;2023-05-27T06:47:48;11.67;;;5.20;;
6376;SDS011;3221;48.858;10.128;2023-05-27T06:50:15;11.77;;;5.00;;
6376;SDS011;3221;48.858;10.128;2023-05-27T06:52:42;12.57;;;4.77;;
6376;SDS011;3221;48.858;10.128;2023-05-27T06:55:12;12.17;;;5.17;;
6376;SDS011;3221;48.858;10.128;2023-05-27T06:57:57;9.30;;;5.17;;
6376;SDS011;3221;48.858;10.128;2023-05-27T07:00:45;10.33;;;5.17;;
6376;SDS011;3221;48.858;10.128;2023-05-27T07:03:26;10.30;;;4.90;;
6376;SDS011;3221;48.858;10.128;2023-05-27T07:05:54;9.80;;;4.80;;
6376;SDS011;3221;48.858;10.128;2023-05-27T07:08:23;9.17;;;4.60;;
6376;SDS011;3221;48.858;10.128;2023-05-27T07:11:02;9.90;;;4.70;;
6376;SDS011;3221;48.858;10.128;2023-05-27T07:13:30;8.93;;;4.57;;
6376;SDS011;3221;48.858;10.128;2023-05-27T07:15:57;10.47;;;4.67;;
6376;SDS011;3221;48.858;10.128;2023-05-27T07:18:24;10.33;;;4.87;;
6376;SDS011;3221;48.858;10.128;2023-05-27T07:20:55;13.53;;;4.83;;
6376;SDS011;3221;48.858;10.128;2023-05-27T07:23:22;10.47;;;4.57;;
6376;SDS011;3221;48.858;10.128;2023-05-27T07:26:00;11.90;;;4.60;;
6376;SDS011;3221;48.858;10.128;2023-05-27T07:28:27;8.60;;;4.63;;
6376;SDS011;3221;48.858;10.128;2023-05-27T07:31:03;10.70;;;4.30;;
6376;SDS011;3221;48.858;10.128;2023-05-27T07:33:39;11.93;;;5.27;;
6376;SDS011;3221;48.858;10.128;2023-05-27T07:36:08;10.63;;;5.40;;
6376;SDS011;3221;48.858;10.128;2023-05-27T07:38:36;11.93;;;5.57;;
6376;SDS011;3221;48.858;10.128;2023-05-27T07:41:03;12.33;;;5.03;;
6376;SDS011;3221;48.858;10.128;2023-05-27T07:43:31;10.03;;;4.87;;
6376;SDS011;3221;48.858;10.128;2023-05-27T07:45:57;11.73;;;4.80;;
6376;SDS011;3221;48.858;10.128;2023-05-27T07:48:24;9.70;;;5.10;;
6376;SDS011;3221;48.858;10.128;2023-05-27T07:50:51;7.83;;;4.60;;
6376;SDS011;3221;48.858;10.128;2023-05-27T07:53:19;9.33;;;4.47;;
6376;SDS011;3221;48.858;10.128;2023-05-27T07:55:46;8.10;;;4.40;;
6376;SDS011;3221;48.858;10.128;2023-05-27T07:58:14;15.90;;;5.57;;
6376;SDS011;3221;48.858;10.128;2023-05-27T08:01:13;10.67;;;5.03;;
6376;SDS011;3221;48.858;10.128;2023-05-27T08:03:46;10.17;;;4.50;;
6376;SDS011;3221;48.858;10.128;2023-05-27T08:06:16;10.03;;;4.40;;
6376;SDS011;3221;48.858;10.128;2023-05-27T08:09:09;11.47;;;4.90;;
6376;SDS011;3221;48.858;10.128;2023-05-27T08:11:55;12.50;;;5.03;;
6376;SDS011;3221;48.858;10.128;2023-05-27T08:14:31;8.93;;;5.00;;
6376;SDS011;3221;48.858;10.128;2023-05-27T08:17:21;9.47;;;4.57;;
6376;SDS011;3221;48.858;10.128;2023-05-27T08:20:15;12.13;;;4.87;;
6376;SDS011;3221;48.858;10.128;2023-05-27T08:23:06;8.73;;;4.73;;
6376;SDS011;3221;48.858;10.128;2023-05-27T08:25:49;8.90;;;4.30;;
6376;SDS011;3221;48.858;10.128;2023-05-27T08:28:51;9.07;;;4.87;;
6376;SDS011;3221;48.858;10.128;2023-05-27T08:31:44;9.87;;;4.60;;
6376;SDS011;3221;48.858;10.128;2023-05-27T08:34:12;9.37;;;4.50;;
6376;SDS011;3221;48.858;10.128;2023-05-27T08:36:39;7.87;;;5.13;;
6376;SDS011;3221;48.858;10.128;2023-05-27T08:39:06;12.47;;;4.73;;
6376;SDS011;3221;48.858;10.128;2023-05-27T08:41:40;11.53;;;4.93;;
6376;SDS011;3221;48.858;10.128;2023-05-27T08:44:08;10.20;;;4.50;;
6376;SDS011;3221;48.858;10.128;2023-05-27T08:46:39;8.97;;;4.77;;
6376;SDS011;3221;48.858;10.128;2023-05-27T08:49:07;11.80;;;5.23;;
6376;SDS011;3221;48.858;10.128;2023-05-27T08:51:36;9.57;;;4.50;;
6376;SDS011;3221;48.858;10.128;2023-05-27T08:54:07;9.27;;;4.33;;
6376;SDS011;3221;48.858;10.128;2023-05-27T08:56:36;10.07;;;4.60;;
6376;SDS011;3221;48.858;10.128;2023-05-27T08:59:07;14.13;;;4.60;;
6376;SDS011;3221;48.858;10.128;2023-05-27T09:01:35;11.63;;;4.97;;
6376;SDS011;3221;48.858;10.128;2023-05-27T09:04:02;7.87;;;4.40;;
6376;SDS011;3221;48.858;10.128;2023-05-27T09:06:30;9.10;;;4.70;;
6376;SDS011;3221;48.858;10.128;2023-05-27T09:08:57;9.97;;;4.80;;
6376;SDS011;3221;48.858;10.128;2023-05-27T09:11:25;10.33;;;4.90;;
6376;SDS011;3221;48.858;10.128;2023-05-27T09:13:54;10.30;;;5.00;;
6376;SDS011;3221;48.858;10.128;2023-05-27T09:16:22;7.47;;;4.47;;
6376;SDS011;3221;48.858;10.128;2023-05-27T09:18:49;11.90;;;4.83;;
6376;SDS011;3221;48.858;10.128;2023-05-27T09:21:17;9.77;;;4.83;;
6376;SDS011;3221;48.858;10.128;2023-05-27T09:23:44;9.90;;;5.00;;
6376;SDS011;3221;48.858;10.128;2023-05-27T09:26:11;11.40;;;5.27;;
6376;SDS011;3221;48.858;10.128;2023-05-27T09:28:39;13.27;;;5.10;;
6376;SDS011;3221;48.858;10.128;2023-05-27T09:31:07;11.43;;;4.67;;
6376;SDS011;3221;48.858;10.128;2023-05-27T09:33:37;7.63;;;4.50;;
6376;SDS011;3221;48.858;10.128;2023-05-27T09:36:05;9.53;;;5.20;;
6376;SDS011;3221;48.858;10.128;2023-05-27T09:38:33;12.93;;;5.73;;
6376;SDS011;3221;48.858;10.128;2023-05-27T09:41:01;10.57;;;5.60;;
6376;SDS011;3221;48.858;10.128;2023-05-27T09:43:29;11.13;;;5.50;;
6376;SDS011;3221;48.858;10.128;2023-05-27T09:45:58;8.33;;;4.90;;
6376;SDS011;3221;48.858;10.128;2023-05-27T09:48:31;10.00;;;5.63;;
6376;SDS011;3221;48.858;10.128;2023-05-27T09:50:58;9.57;;;5.03;;
6376;SDS011;3221;48.858;10.128;2023-05-27T09:53:27;8.90;;;5.37;;
6376;SDS011;3221;48.858;10.128;2023-05-27T09:55:54;10.73;;;5.80;;
6376;SDS011;3221;48.858;10.128;2023-05-27T09:58:22;11.07;;;5.67;;
6376;SDS011;3221;48.858;10.128;2023-05-27T10:00:50;12.43;;;5.20;;
6376;SDS011;3221;48.858;10.128;2023-05-27T10:03:21;12.23;;;5.53;;
6376;SDS011;3221;48.858;10.128;2023-05-27T10:05:49;10.33;;;5.50;;
6376;SDS011;3221;48.858;10.128;2023-05-27T10:08:18;9.93;;;4.83;;
6376;SDS011;3221;48.858;10.128;2023-05-27T10:10:52;10.03;;;5.17;;
6376;SDS011;3221;48.858;10.128;2023-05-27T10:13:20;12.00;;;5.67;;
6376;SDS011;3221;48.858;10.128;2023-05-27T10:15:50;11.33;;;5.10;;
6376;SDS011;3221;48.858;10.128;2023-05-27T10:18:27;11.97;;;5.10;;
6376;SDS011;3221;48.858;10.128;2023-05-27T10:20:57;9.70;;;4.83;;
6376;SDS011;3221;48.858;10.128;2023-05-27T10:23:25;9.63;;;4.97;;
6376;SDS011;3221;48.858;10.128;2023-05-27T10:26:00;9.47;;;5.07;;
6376;SDS011;3221;48.858;10.128;2023-05-27T10:28:32;9.43;;;5.20;;
6376;SDS011;3221;48.858;10.128;2023-05-27T10:31:15;9.90;;;5.17;;
6376;SDS011;3221;48.858;10.128;2023-05-27T10:33:44;8.40;;;5.03;;
6376;SDS011;3221;48.858;10.128;2023-05-27T10:36:13;10.70;;;4.90;;
6376;SDS011;3221;48.858;10.128;2023-05-27T10:38:54;10.97;;;4.93;;
6376;SDS011;3221;48.858;10.128;2023-05-27T10:41:21;11.37;;;4.47;;
6376;SDS011;3221;48.858;10.128;2023-05-27T10:43:55;10.73;;;5.17;;
6376;SDS011;3221;48.858;10.128;2023-05-27T10:46:25;14.97;;;5.27;;
6376;SDS011;3221;48.858;10.128;2023-05-27T10:48:53;11.70;;;4.90;;
6376;SDS011;3221;48.858;10.128;2023-05-27T10:51:20;10.03;;;5.00;;
6376;SDS011;3221;48.858;10.128;2023-05-27T10:54:02;9.97;;;4.63;;
6376;SDS011;3221;48.858;10.128;2023-05-27T10:56:50;7.77;;;4.37;;
6376;SDS011;3221;48.858;10.128;2023-05-27T10:59:19;8.70;;;4.80;;
6376;SDS011;3221;48.858;10.128;2023-05-27T11:01:51;9.77;;;5.30;;
6376;SDS011;3221;48.858;10.128;2023-05-27T11:04:22;12.63;;;5.53;;
6376;SDS011;3221;48.858;10.128;2023-05-27T11:06:58;8.03;;;4.60;;
6376;SDS011;3221;48.858;10.128;2023-05-27T11:09:30;9.47;;;5.03;;
6376;SDS011;3221;48.858;10.128;2023-05-27T11:12:00;11.10;;;5.00;;
6376;SDS011;3221;48.858;10.128;2023-05-27T11:14:31;9.50;;;4.43;;
6376;SDS011;3221;48.858;10.128;2023-05-27T11:16:59;11.50;;;5.30;;
6376;SDS011;3221;48.858;10.128;2023-05-27T11:19:26;8.60;;;4.53;;
6376;SDS011;3221;48.858;10.128;2023-05-27T11:21:53;8.90;;;4.30;;
6376;SDS011;3221;48.858;10.128;2023-05-27T11:24:20;7.90;;;4.37;;
6376;SDS011;3221;48.858;10.128;2023-05-27T11:26:48;8.23;;;4.60;;
6376;SDS011;3221;48.858;10.128;2023-05-27T11:29:15;6.67;;;4.23;;
6376;SDS011;3221;48.858;10.128;2023-05-27T11:31:45;8.53;;;4.60;;
6376;SDS011;3221;48.858;10.128;2023-05-27T11:34:14;9.27;;;4.57;;
6376;SDS011;3221;48.858;10.128;2023-05-27T11:36:44;9.57;;;4.83;;
6376;SDS011;3221;48.858;10.128;2023-05-27T11:39:11;8.97;;;4.33;;
6376;SDS011;3221;48.858;10.128;2023-05-27T11:41:48;10.73;;;4.47;;
6376;SDS011;3221;48.858;10.128;2023-05-27T11:44:20;8.90;;;4.77;;
6376;SDS011;3221;48.858;10.128;2023-05-27T11:46:58;7.07;;;4.03;;
6376;SDS011;3221;48.858;10.128;2023-05-27T11:49:28;8.40;;;4.33;;
6376;SDS011;3221;48.858;10.128;2023-05-27T11:51:55;9.30;;;4.57;;
6376;SDS011;3221;48.858;10.128;2023-05-27T11:54:23;7.77;;;3.83;;
6376;SDS011;3221;48.858;10.128;2023-05-27T11:56:51;7.30;;;4.10;;
6376;SDS011;3221;48.858;10.128;2023-05-27T11:59:19;10.23;;;4.37;;
6376;SDS011;3221;48.858;10.128;2023-05-27T12:01:47;7.93;;;4.13;;
6376;SDS011;3221;48.858;10.128;2023-05-27T12:04:14;8.87;;;4.00;;
6376;SDS011;3221;48.858;10.128;2023-05-27T12:06:42;6.93;;;4.63;;
6376;SDS011;3221;48.858;10.128;2023-05-27T12:09:09;9.80;;;4.50;;
6376;SDS011;3221;48.858;10.128;2023-05-27T12:11:37;8.67;;;4.47;;
6376;SDS011;3221;48.858;10.128;2023-05-27T12:14:05;7.00;;;3.90;;
6376;SDS011;3221;48.858;10.128;2023-05-27T12:16:32;9.77;;;4.10;;
6376;SDS011;3221;48.858;10.128;2023-05-27T12:18:59;7.73;;;3.80;;
6376;SDS011;3221;48.858;10.128;2023-05-27T12:21:26;7.40;;;4.47;;
6376;SDS011;3221;48.858;10.128;2023-05-27T12:23:54;8.37;;;4.83;;
6376;SDS011;3221;48.858;10.128;2023-05-27T12:26:21;6.73;;;4.00;;
6376;SDS011;3221;48.858;10.128;2023-05-27T12:28:48;7.97;;;4.30;;
6376;SDS011;3221;48.858;10.128;2023-05-27T12:31:16;7.60;;;4.13;;
6376;SDS011;3221;48.858;10.128;2023-05-27T12:33:43;7.40;;;4.40;;
6376;SDS011;3221;48.858;10.128;2023-05-27T12:36:10;9.80;;;4.10;;
6376;SDS011;3221;48.858;10.128;2023-05-27T12:38:37;8.67;;;4.00;;
6376;SDS011;3221;48.858;10.128;2023-05-27T12:41:04;7.33;;;4.50;;
6376;SDS011;3221;48.858;10.128;2023-05-27T12:43:31;7.70;;;4.20;;
6376;SDS011;3221;48.858;10.128;2023-05-27T12:45:58;6.63;;;4.40;;
6376;SDS011;3221;48.858;10.128;2023-05-27T12:48:25;9.47;;;4.33;;
6376;SDS011;3221;48.858;10.128;2023-05-27T12:50:52;9.07;;;4.30;;
6376;SDS011;3221;48.858;10.128;2023-05-27T12:53:19;11.33;;;4.53;;
6376;SDS011;3221;48.858;10.128;2023-05-27T12:55:46;7.67;;;4.00;;
6376;SDS011;3221;48.858;10.128;2023-05-27T12:58:13;7.53;;;3.97;;
6376;SDS011;3221;48.858;10.128;2023-05-27T13:00:40;10.80;;;4.40;;
6376;SDS011;3221;48.858;10.128;2023-05-27T13:03:08;7.70;;;4.03;;
6376;SDS011;3221;48.858;10.128;2023-05-27T13:05:37;8.93;;;4.43;;
6376;SDS011;3221;48.858;10.128;2023-05-27T13:08:04;7.63;;;4.27;;
6376;SDS011;3221;48.858;10.128;2023-05-27T13:10:32;6.33;;;4.20;;
6376;SDS011;3221;48.858;10.128;2023-05-27T13:13:00;8.83;;;4.10;;
6376;SDS011;3221;48.858;10.128;2023-05-27T13:15:27;9.60;;;4.70;;
6376;SDS011;3221;48.858;10.128;2023-05-27T13:17:55;8.57;;;4.20;;
6376;SDS011;3221;48.858;10.128;2023-05-27T13:20:23;6.93;;;3.97;;
6376;SDS011;3221;48.858;10.128;2023-05-27T13:22:51;9.77;;;4.47;;
6376;SDS011;3221;48.858;10.128;2023-05-27T13:25:19;8.27;;;4.40;;
6376;SDS011;3221;48.858;10.128;2023-05-27T13:27:47;6.17;;;3.90;;
6376;SDS011;3221;48.858;10.128;2023-05-27T13:30:14;7.67;;;3.97;;
6376;SDS011;3221;48.858;10.128;2023-05-27T13:32:42;9.03;;;4.10;;
6376;SDS011;3221;48.858;10.128;2023-05-27T13:35:10;7.00;;;3.70;;
6376;SDS011;3221;48.858;10.128;2023-05-27T13:37:38;8.90;;;4.43;;
6376;SDS011;3221;48.858;10.128;2023-05-27T13:40:08;5.90;;;3.97;;
6376;SDS011;3221;48.858;10.128;2023-05-27T13:42:36;8.10;;;3.93;;
6376;SDS011;3221;48.858;10.128;2023-05-27T13:45:03;8.53;;;4.60;;
6376;SDS011;3221;48.858;10.128;2023-05-27T13:47:31;8.23;;;4.40;;
6376;SDS011;3221;48.858;10.128;2023-05-27T13:49:58;8.10;;;4.70;;
6376;SDS011;3221;48.858;10.128;2023-05-27T13:52:25;8.33;;;4.53;;
6376;SDS011;3221;48.858;10.128;2023-05-27T13:54:53;7.03;;;4.37;;
6376;SDS011;3221;48.858;10.128;2023-05-27T13:57:19;7.43;;;4.00;;
6376;SDS011;3221;48.858;10.128;2023-05-27T13:59:46;6.43;;;3.70;;
6376;SDS011;3221;48.858;10.128;2023-05-27T14:02:13;7.90;;;3.93;;
6376;SDS011;3221;48.858;10.128;2023-05-27T14:04:40;7.43;;;3.93;;
6376;SDS011;3221;48.858;10.128;2023-05-27T14:07:07;10.40;;;4.03;;
6376;SDS011;3221;48.858;10.128;2023-05-27T14:09:34;13.43;;;4.60;;
6376;SDS011;3221;48.858;10.128;2023-05-27T14:12:01;8.00;;;4.33;;
6376;SDS011;3221;48.858;10.128;2023-05-27T14:14:28;7.57;;;4.07;;
6376;SDS011;3221;48.858;10.128;2023-05-27T14:16:55;8.33;;;4.40;;
6376;SDS011;3221;48.858;10.128;2023-05-27T14:19:23;8.40;;;4.27;;
6376;SDS011;3221;48.858;10.128;2023-05-27T14:21:50;8.63;;;4.40;;
6376;SDS011;3221;48.858;10.128;2023-05-27T14:24:16;6.83;;;4.37;;
6376;SDS011;3221;48.858;10.128;2023-05-27T14:26:43;7.77;;;4.20;;
6376;SDS011;3221;48.858;10.128;2023-05-27T14:29:10;6.23;;;4.10;;
6376;SDS011;3221;48.858;10.128;2023-05-27T14:31:37;8.10;;;3.87;;
6376;SDS011;3221;48.858;10.128;2023-05-27T14:34:05;6.10;;;3.87;;
6376;SDS011;3221;48.858;10.128;2023-05-27T14:36:32;7.27;;;4.53;;
6376;SDS011;3221;48.858;10.128;2023-05-27T14:38:58;7.53;;;4.17;;
6376;SDS011;3221;48.858;10.128;2023-05-27T14:41:29;6.33;;;4.40;;
6376;SDS011;3221;48.858;10.128;2023-05-27T14:43:56;11.30;;;4.23;;
6376;SDS011;3221;48.858;10.128;2023-05-27T14:46:23;6.00;;;3.93;;
6376;SDS011;3221;48.858;10.128;2023-05-27T14:48:50;7.60;;;3.90;;
6376;SDS011;3221;48.858;10.128;2023-05-27T14:51:17;7.57;;;4.23;;
6376;SDS011;3221;48.858;10.128;2023-05-27T14:53:45;8.50;;;3.93;;
6376;SDS011;3221;48.858;10.128;2023-05-27T14:56:13;8.53;;;3.90;;
6376;SDS011;3221;48.858;10.128;2023-05-27T14:58:40;13.17;;;4.33;;
6376;SDS011;3221;48.858;10.128;2023-05-27T15:01:06;6.60;;;3.80;;
6376;SDS011;3221;48.858;10.128;2023-05-27T15:03:33;6.73;;;3.77;;
6376;SDS011;3221;48.858;10.128;2023-05-27T15:06:01;6.80;;;4.00;;
6376;SDS011;3221;48.858;10.128;2023-05-27T15:08:28;7.87;;;3.70;;
6376;SDS011;3221;48.858;10.128;2023-05-27T15:10:54;7.53;;;4.10;;
6376;SDS011;3221;48.858;10.128;2023-05-27T15:13:21;7.77;;;3.80;;
6376;SDS011;3221;48.858;10.128;2023-05-27T15:15:48;6.07;;;3.60;;
6376;SDS011;3221;48.858;10.128;2023-05-27T15:18:16;7.50;;;4.10;;
6376;SDS011;3221;48.858;10.128;2023-05-27T15:20:43;6.87;;;3.90;;
6376;SDS011;3221;48.858;10.128;2023-05-27T15:23:10;7.23;;;4.40;;
6376;SDS011;3221;48.858;10.128;2023-05-27T15:25:37;8.13;;;4.30;;
6376;SDS011;3221;48.858;10.128;2023-05-27T15:28:04;10.23;;;4.17;;
6376;SDS011;3221;48.858;10.128;2023-05-27T15:30:31;8.33;;;3.97;;
6376;SDS011;3221;48.858;10.128;2023-05-27T15:32:59;6.27;;;3.60;;
6376;SDS011;3221;48.858;10.128;2023-05-27T15:35:26;7.10;;;3.90;;
6376;SDS011;3221;48.858;10.128;2023-05-27T15:37:54;7.17;;;3.77;;
6376;SDS011;3221;48.858;10.128;2023-05-27T15:40:21;6.93;;;4.20;;
6376;SDS011;3221;48.858;10.128;2023-05-27T15:42:48;5.93;;;3.87;;
6376;SDS011;3221;48.858;10.128;2023-05-27T15:45:15;6.73;;;3.70;;
6376;SDS011;3221;48.858;10.128;2023-05-27T15:47:42;6.37;;;3.90;;
6376;SDS011;3221;48.858;10.128;2023-05-27T15:50:09;8.00;;;4.20;;
6376;SDS011;3221;48.858;10.128;2023-05-27T15:52:36;7.00;;;4.10;;
6376;SDS011;3221;48.858;10.128;2023-05-27T15:55:03;6.90;;;3.70;;
6376;SDS011;3221;48.858;10.128;2023-05-27T15:57:30;6.77;;;3.70;;
6376;SDS011;3221;48.858;10.128;2023-05-27T15:59:57;7.70;;;3.80;;